Aviation Digital Data Service (ADDS)

Output produced by METARs form (0243 UTC 24 July 2017)
found at http://www.aviationweather.gov/adds/metars/
 
KWJF 232333Z 2400/2424 24018G28KT P6SM SKC 
     FM240400 24012KT P6SM SKC 
     FM241200 VRB05KT P6SM SKC 
     FM241800 23007KT P6SM SKC 
     FM242100 23015KT P6SM SKC
       
KWMC 232320Z 2400/2424 VRB06KT P6SM BKN110 
     FM240200 14013G23KT P6SM VCTS BKN100CB 
     FM240900 VRB06KT P6SM SCT120 
     FM241800 VRB06KT P6SM BKN100
       
TAF KWRB 232100Z 2321/2503 28009KT 9999 SCT045 BKN150 QNH2988INS 
     TEMPO 2321/2323 VRB12G20KT 6000 -TSRA BKN035CB OVC100 
     BECMG 2402/2403 22006KT 9999 SCT010 BKN030 QNH2992INS 
     TEMPO 2410/2413 BKN010 
     BECMG 2412/2413 24009KT 9999 FEW040 SCT200 QNH2994INS 
     TEMPO 2418/2424 25015G25KT 6000 -TSRA BKN035CB OVC100 TX35/2419Z TN23/2410Z
       
TAF AMD KWRI 240225Z 2402/2508 VRB06KT 9000 -SHRA BKN045 QNH2977INS 
     TEMPO 2402/2410 22010G20KT 4800 -TSRA OVC010CB 
     BECMG 2409/2410 VRB06KT 9999 NSW SCT010 OVC020 QNH2977INS 
     BECMG 2413/2414 27012KT 9999 BKN020 QNH2978INS 
     BECMG 2419/2420 26009KT 9999 SCT020 BKN030 QNH2984INS TX26/2419Z TN19/2502Z
       
KWRL 232326Z 2400/2424 VRB06KT P6SM SCT120 BKN250 
     FM240300 VRB05KT P6SM SKC 
     FM241200 19004KT P6SM SKC 
     FM241800 34007KT P6SM SCT140 BKN200